sensor_id;sensor_type;location;lat;lon;timestamp;temperature;humidity
13848;DHT22;6994;49.752;6.094;2024-01-27T00:01:11;0.00;99.90
13848;DHT22;6994;49.752;6.094;2024-01-27T00:03:38;0.00;99.90
13848;DHT22;6994;49.752;6.094;2024-01-27T00:06:05;-0.10;99.90
13848;DHT22;6994;49.752;6.094;2024-01-27T00:08:32;-0.10;99.90
13848;DHT22;6994;49.752;6.094;2024-01-27T00:11:00;-0.20;99.90
13848;DHT22;6994;49.752;6.094;2024-01-27T00:13:28;-0.20;99.90
13848;DHT22;6994;49.752;6.094;2024-01-27T00:15:56;-0.30;99.90
13848;DHT22;6994;49.752;6.094;2024-01-27T00:18:24;-0.30;99.90
13848;DHT22;6994;49.752;6.094;2024-01-27T00:20:51;-0.30;99.90
13848;DHT22;6994;49.752;6.094;2024-01-27T00:23:18;-0.30;99.90
13848;DHT22;6994;49.752;6.094;2024-01-27T00:25:45;-0.40;99.90
13848;DHT22;6994;49.752;6.094;2024-01-27T00:28:12;-0.40;99.90
13848;DHT22;6994;49.752;6.094;2024-01-27T00:30:40;-0.40;99.90
13848;DHT22;6994;49.752;6.094;2024-01-27T00:33:07;-0.40;99.90
13848;DHT22;6994;49.752;6.094;2024-01-27T00:35:34;-0.50;99.90
13848;DHT22;6994;49.752;6.094;2024-01-27T00:38:01;-0.30;99.90
13848;DHT22;6994;49.752;6.094;2024-01-27T00:40:28;-0.20;99.90
13848;DHT22;6994;49.752;6.094;2024-01-27T00:42:56;-0.30;99.90
13848;DHT22;6994;49.752;6.094;2024-01-27T00:45:24;-0.30;99.90
13848;DHT22;6994;49.752;6.094;2024-01-27T00:47:52;-0.40;99.90
13848;DHT22;6994;49.752;6.094;2024-01-27T00:50:19;-0.40;99.90
13848;DHT22;6994;49.752;6.094;2024-01-27T00:52:46;-0.40;99.90
13848;DHT22;6994;49.752;6.094;2024-01-27T00:55:13;-0.40;99.90
13848;DHT22;6994;49.752;6.094;2024-01-27T00:57:40;-0.50;99.90
13848;DHT22;6994;49.752;6.094;2024-01-27T01:00:08;-0.50;99.90
13848;DHT22;6994;49.752;6.094;2024-01-27T01:02:36;-0.60;99.90
13848;DHT22;6994;49.752;6.094;2024-01-27T01:05:02;-0.60;99.90
13848;DHT22;6994;49.752;6.094;2024-01-27T01:07:30;-0.70;99.90
13848;DHT22;6994;49.752;6.094;2024-01-27T01:09:57;-0.50;99.90
13848;DHT22;6994;49.752;6.094;2024-01-27T01:12:24;-0.40;99.90
13848;DHT22;6994;49.752;6.094;2024-01-27T01:14:51;-0.50;99.90
13848;DHT22;6994;49.752;6.094;2024-01-27T01:17:18;-0.50;99.90
13848;DHT22;6994;49.752;6.094;2024-01-27T01:19:46;-0.70;99.90
13848;DHT22;6994;49.752;6.094;2024-01-27T01:22:14;-0.70;99.90
13848;DHT22;6994;49.752;6.094;2024-01-27T01:24:42;-0.80;99.90
13848;DHT22;6994;49.752;6.094;2024-01-27T01:27:09;-0.80;99.90
13848;DHT22;6994;49.752;6.094;2024-01-27T01:29:37;-0.80;99.90
13848;DHT22;6994;49.752;6.094;2024-01-27T01:32:04;-0.80;99.90
13848;DHT22;6994;49.752;6.094;2024-01-27T01:34:31;-0.80;99.90
13848;DHT22;6994;49.752;6.094;2024-01-27T01:36:59;-0.90;99.90
13848;DHT22;6994;49.752;6.094;2024-01-27T01:39:27;-0.90;99.90
13848;DHT22;6994;49.752;6.094;2024-01-27T01:41:54;-0.90;99.90
13848;DHT22;6994;49.752;6.094;2024-01-27T01:44:21;-1.00;99.90
13848;DHT22;6994;49.752;6.094;2024-01-27T01:46:49;-1.00;99.90
13848;DHT22;6994;49.752;6.094;2024-01-27T01:49:16;-1.00;99.90
13848;DHT22;6994;49.752;6.094;2024-01-27T01:51:43;-1.00;99.90
13848;DHT22;6994;49.752;6.094;2024-01-27T01:54:10;-1.00;99.90
13848;DHT22;6994;49.752;6.094;2024-01-27T01:56:37;-1.00;99.90
13848;DHT22;6994;49.752;6.094;2024-01-27T01:59:05;-1.00;99.90
13848;DHT22;6994;49.752;6.094;2024-01-27T02:01:33;-1.00;99.90
13848;DHT22;6994;49.752;6.094;2024-01-27T02:04:04;-1.00;99.90
13848;DHT22;6994;49.752;6.094;2024-01-27T02:06:29;-1.10;99.90
13848;DHT22;6994;49.752;6.094;2024-01-27T02:08:56;-1.10;99.90
13848;DHT22;6994;49.752;6.094;2024-01-27T02:11:23;-1.10;99.90
13848;DHT22;6994;49.752;6.094;2024-01-27T02:13:50;-1.10;99.90
13848;DHT22;6994;49.752;6.094;2024-01-27T02:16:17;-1.10;99.90
13848;DHT22;6994;49.752;6.094;2024-01-27T02:18:45;-1.00;99.90
13848;DHT22;6994;49.752;6.094;2024-01-27T02:21:12;-0.90;99.90
13848;DHT22;6994;49.752;6.094;2024-01-27T02:23:39;-0.90;99.90
13848;DHT22;6994;49.752;6.094;2024-01-27T02:26:06;-1.00;99.90
13848;DHT22;6994;49.752;6.094;2024-01-27T02:28:33;-0.80;99.90
13848;DHT22;6994;49.752;6.094;2024-01-27T02:31:01;-0.80;99.90
13848;DHT22;6994;49.752;6.094;2024-01-27T02:33:28;-0.80;99.90
13848;DHT22;6994;49.752;6.094;2024-01-27T02:35:55;-0.90;99.90
13848;DHT22;6994;49.752;6.094;2024-01-27T02:38:23;-1.10;99.90
13848;DHT22;6994;49.752;6.094;2024-01-27T02:40:51;-1.10;99.90
13848;DHT22;6994;49.752;6.094;2024-01-27T02:43:19;-1.20;99.90
13848;DHT22;6994;49.752;6.094;2024-01-27T02:45:47;-1.30;99.90
13848;DHT22;6994;49.752;6.094;2024-01-27T02:48:15;-1.30;99.90
13848;DHT22;6994;49.752;6.094;2024-01-27T02:50:42;-1.30;99.90
13848;DHT22;6994;49.752;6.094;2024-01-27T02:53:09;-1.40;99.90
13848;DHT22;6994;49.752;6.094;2024-01-27T02:55:36;-1.40;99.90
13848;DHT22;6994;49.752;6.094;2024-01-27T02:58:04;-1.40;99.90
13848;DHT22;6994;49.752;6.094;2024-01-27T03:00:31;-1.40;99.90
13848;DHT22;6994;49.752;6.094;2024-01-27T03:02:58;-1.40;99.90
13848;DHT22;6994;49.752;6.094;2024-01-27T03:05:25;-1.40;99.90
13848;DHT22;6994;49.752;6.094;2024-01-27T03:07:52;-1.40;99.90
13848;DHT22;6994;49.752;6.094;2024-01-27T03:10:20;-1.40;99.90
13848;DHT22;6994;49.752;6.094;2024-01-27T03:12:48;-1.20;99.90
13848;DHT22;6994;49.752;6.094;2024-01-27T03:15:16;-1.20;99.90
13848;DHT22;6994;49.752;6.094;2024-01-27T03:17:43;-1.30;99.90
13848;DHT22;6994;49.752;6.094;2024-01-27T03:20:10;-1.30;99.90
13848;DHT22;6994;49.752;6.094;2024-01-27T03:22:37;-1.20;99.90
13848;DHT22;6994;49.752;6.094;2024-01-27T03:25:06;-1.00;99.90
13848;DHT22;6994;49.752;6.094;2024-01-27T03:27:33;-1.00;99.90
13848;DHT22;6994;49.752;6.094;2024-01-27T03:30:00;-1.10;99.90
13848;DHT22;6994;49.752;6.094;2024-01-27T03:32:27;-1.20;99.90
13848;DHT22;6994;49.752;6.094;2024-01-27T03:34:54;-1.30;99.90
13848;DHT22;6994;49.752;6.094;2024-01-27T03:37:22;-1.40;99.90
13848;DHT22;6994;49.752;6.094;2024-01-27T03:39:49;-1.50;99.90
13848;DHT22;6994;49.752;6.094;2024-01-27T03:42:16;-1.50;99.90
13848;DHT22;6994;49.752;6.094;2024-01-27T03:44:44;-1.30;99.90
13848;DHT22;6994;49.752;6.094;2024-01-27T03:47:11;-1.30;99.90
13848;DHT22;6994;49.752;6.094;2024-01-27T03:49:38;-1.40;99.90
13848;DHT22;6994;49.752;6.094;2024-01-27T03:52:05;-1.40;99.90
13848;DHT22;6994;49.752;6.094;2024-01-27T03:54:33;-1.30;99.90
13848;DHT22;6994;49.752;6.094;2024-01-27T03:57:00;-1.20;99.90
13848;DHT22;6994;49.752;6.094;2024-01-27T03:59:27;-1.10;99.90
13848;DHT22;6994;49.752;6.094;2024-01-27T04:01:54;-1.10;99.90
13848;DHT22;6994;49.752;6.094;2024-01-27T04:04:22;-1.20;99.90
13848;DHT22;6994;49.752;6.094;2024-01-27T04:06:49;-1.30;99.90
13848;DHT22;6994;49.752;6.094;2024-01-27T04:09:17;-0.90;99.90
13848;DHT22;6994;49.752;6.094;2024-01-27T04:11:45;-0.80;99.90
13848;DHT22;6994;49.752;6.094;2024-01-27T04:14:12;-0.90;99.90
13848;DHT22;6994;49.752;6.094;2024-01-27T04:16:39;-1.00;99.90
13848;DHT22;6994;49.752;6.094;2024-01-27T04:19:06;-1.10;99.90
13848;DHT22;6994;49.752;6.094;2024-01-27T04:21:33;-0.90;99.90
13848;DHT22;6994;49.752;6.094;2024-01-27T04:24:01;-0.90;99.90
13848;DHT22;6994;49.752;6.094;2024-01-27T04:26:28;-0.80;99.90
13848;DHT22;6994;49.752;6.094;2024-01-27T04:28:55;-0.80;99.90
13848;DHT22;6994;49.752;6.094;2024-01-27T04:31:23;-0.90;99.90
13848;DHT22;6994;49.752;6.094;2024-01-27T04:33:51;-1.00;99.90
13848;DHT22;6994;49.752;6.094;2024-01-27T04:36:28;-1.00;99.90
13848;DHT22;6994;49.752;6.094;2024-01-27T04:38:55;-1.00;99.90
13848;DHT22;6994;49.752;6.094;2024-01-27T04:41:22;-1.10;99.90
13848;DHT22;6994;49.752;6.094;2024-01-27T04:43:49;-1.10;99.90
13848;DHT22;6994;49.752;6.094;2024-01-27T04:46:17;-0.90;99.90
13848;DHT22;6994;49.752;6.094;2024-01-27T04:48:45;-0.90;99.90
13848;DHT22;6994;49.752;6.094;2024-01-27T04:51:13;-0.90;99.90
13848;DHT22;6994;49.752;6.094;2024-01-27T04:53:41;-1.00;99.90
13848;DHT22;6994;49.752;6.094;2024-01-27T04:56:08;-1.00;99.90
13848;DHT22;6994;49.752;6.094;2024-01-27T04:58:35;-1.00;99.90
13848;DHT22;6994;49.752;6.094;2024-01-27T05:01:03;-1.10;99.90
13848;DHT22;6994;49.752;6.094;2024-01-27T05:03:30;-1.10;99.90
13848;DHT22;6994;49.752;6.094;2024-01-27T05:05:58;-1.20;99.90
13848;DHT22;6994;49.752;6.094;2024-01-27T05:08:26;-1.20;99.90
13848;DHT22;6994;49.752;6.094;2024-01-27T05:10:53;-1.20;99.90
13848;DHT22;6994;49.752;6.094;2024-01-27T05:13:20;-1.20;99.90
13848;DHT22;6994;49.752;6.094;2024-01-27T05:15:47;-1.30;99.90
13848;DHT22;6994;49.752;6.094;2024-01-27T05:18:15;-1.30;99.90
13848;DHT22;6994;49.752;6.094;2024-01-27T05:20:42;-1.30;99.90
13848;DHT22;6994;49.752;6.094;2024-01-27T05:23:10;-1.30;99.90
13848;DHT22;6994;49.752;6.094;2024-01-27T05:25:38;-1.30;99.90
13848;DHT22;6994;49.752;6.094;2024-01-27T05:28:06;-1.30;99.90
13848;DHT22;6994;49.752;6.094;2024-01-27T05:30:33;-1.30;99.90
13848;DHT22;6994;49.752;6.094;2024-01-27T05:33:00;-1.30;99.90
13848;DHT22;6994;49.752;6.094;2024-01-27T05:35:27;-1.30;99.90
13848;DHT22;6994;49.752;6.094;2024-01-27T05:37:54;-1.10;99.90
13848;DHT22;6994;49.752;6.094;2024-01-27T05:40:22;-1.00;99.90
13848;DHT22;6994;49.752;6.094;2024-01-27T05:42:49;-1.00;99.90
13848;DHT22;6994;49.752;6.094;2024-01-27T05:45:16;-1.00;99.90
13848;DHT22;6994;49.752;6.094;2024-01-27T05:47:44;-1.10;99.90
13848;DHT22;6994;49.752;6.094;2024-01-27T05:50:12;-1.10;99.90
13848;DHT22;6994;49.752;6.094;2024-01-27T05:52:40;-1.10;99.90
13848;DHT22;6994;49.752;6.094;2024-01-27T05:55:08;-1.10;99.90
13848;DHT22;6994;49.752;6.094;2024-01-27T05:57:35;-1.20;99.90
13848;DHT22;6994;49.752;6.094;2024-01-27T06:00:03;-1.20;99.90
13848;DHT22;6994;49.752;6.094;2024-01-27T06:02:31;-1.20;99.90
13848;DHT22;6994;49.752;6.094;2024-01-27T06:04:58;-1.20;99.90
13848;DHT22;6994;49.752;6.094;2024-01-27T06:07:25;-1.20;99.90
13848;DHT22;6994;49.752;6.094;2024-01-27T06:09:52;-1.20;99.90
13848;DHT22;6994;49.752;6.094;2024-01-27T06:12:19;-1.10;99.90
13848;DHT22;6994;49.752;6.094;2024-01-27T06:14:47;-1.00;99.90
13848;DHT22;6994;49.752;6.094;2024-01-27T06:17:15;-1.10;99.90
13848;DHT22;6994;49.752;6.094;2024-01-27T06:19:43;-1.10;99.90
13848;DHT22;6994;49.752;6.094;2024-01-27T06:22:10;-1.20;99.90
13848;DHT22;6994;49.752;6.094;2024-01-27T06:24:42;-1.20;99.90
13848;DHT22;6994;49.752;6.094;2024-01-27T06:27:08;-1.20;99.90
13848;DHT22;6994;49.752;6.094;2024-01-27T06:29:36;-1.20;99.90
13848;DHT22;6994;49.752;6.094;2024-01-27T06:32:03;-1.20;99.90
13848;DHT22;6994;49.752;6.094;2024-01-27T06:34:31;-1.20;99.90
13848;DHT22;6994;49.752;6.094;2024-01-27T06:36:58;-1.40;99.90
13848;DHT22;6994;49.752;6.094;2024-01-27T06:39:25;-1.40;99.90
13848;DHT22;6994;49.752;6.094;2024-01-27T06:41:52;-1.40;99.90
13848;DHT22;6994;49.752;6.094;2024-01-27T06:44:20;-1.50;99.90
13848;DHT22;6994;49.752;6.094;2024-01-27T06:46:47;-1.50;99.90
13848;DHT22;6994;49.752;6.094;2024-01-27T06:49:14;-1.50;99.90
13848;DHT22;6994;49.752;6.094;2024-01-27T06:51:41;-1.60;99.90
13848;DHT22;6994;49.752;6.094;2024-01-27T06:54:08;-1.60;99.90
13848;DHT22;6994;49.752;6.094;2024-01-27T06:56:36;-1.60;99.90
13848;DHT22;6994;49.752;6.094;2024-01-27T06:59:04;-1.60;99.90
13848;DHT22;6994;49.752;6.094;2024-01-27T07:01:32;-1.60;99.90
13848;DHT22;6994;49.752;6.094;2024-01-27T07:03:59;-1.50;99.90
13848;DHT22;6994;49.752;6.094;2024-01-27T07:06:26;-1.50;99.90
13848;DHT22;6994;49.752;6.094;2024-01-27T07:08:53;-1.40;99.90
13848;DHT22;6994;49.752;6.094;2024-01-27T07:11:20;-1.40;99.90
13848;DHT22;6994;49.752;6.094;2024-01-27T07:13:48;-1.10;99.90
13848;DHT22;6994;49.752;6.094;2024-01-27T07:16:15;-1.10;99.90
13848;DHT22;6994;49.752;6.094;2024-01-27T07:18:43;-1.10;99.90
13848;DHT22;6994;49.752;6.094;2024-01-27T07:21:14;-1.10;99.90
13848;DHT22;6994;49.752;6.094;2024-01-27T07:23:39;-1.10;99.90
13848;DHT22;6994;49.752;6.094;2024-01-27T07:26:08;-1.10;99.90
13848;DHT22;6994;49.752;6.094;2024-01-27T07:28:34;-1.10;99.90
13848;DHT22;6994;49.752;6.094;2024-01-27T07:31:01;-1.10;99.90
13848;DHT22;6994;49.752;6.094;2024-01-27T07:33:28;-1.10;99.90
13848;DHT22;6994;49.752;6.094;2024-01-27T07:35:56;-1.10;99.90
13848;DHT22;6994;49.752;6.094;2024-01-27T07:38:23;-1.10;99.90
13848;DHT22;6994;49.752;6.094;2024-01-27T07:40:50;-0.80;99.90
13848;DHT22;6994;49.752;6.094;2024-01-27T07:43:17;-0.80;99.90
13848;DHT22;6994;49.752;6.094;2024-01-27T07:45:45;-0.80;99.90
13848;DHT22;6994;49.752;6.094;2024-01-27T07:48:13;-0.80;99.90
13848;DHT22;6994;49.752;6.094;2024-01-27T07:50:40;-0.90;99.90
13848;DHT22;6994;49.752;6.094;2024-01-27T07:53:08;-0.90;99.90
13848;DHT22;6994;49.752;6.094;2024-01-27T07:55:35;-0.90;99.90
13848;DHT22;6994;49.752;6.094;2024-01-27T07:58:02;-0.90;99.90
13848;DHT22;6994;49.752;6.094;2024-01-27T08:00:29;-0.80;99.90
13848;DHT22;6994;49.752;6.094;2024-01-27T08:02:57;-0.80;99.90
13848;DHT22;6994;49.752;6.094;2024-01-27T08:05:25;-0.80;99.90
13848;DHT22;6994;49.752;6.094;2024-01-27T08:07:53;-0.70;99.90
13848;DHT22;6994;49.752;6.094;2024-01-27T08:10:22;-0.50;99.90
13848;DHT22;6994;49.752;6.094;2024-01-27T08:12:48;-0.50;99.90
13848;DHT22;6994;49.752;6.094;2024-01-27T08:15:15;-0.40;99.90
13848;DHT22;6994;49.752;6.094;2024-01-27T08:17:43;-0.30;99.90
13848;DHT22;6994;49.752;6.094;2024-01-27T08:20:11;-0.10;99.90
13848;DHT22;6994;49.752;6.094;2024-01-27T08:22:38;-0.10;99.90
13848;DHT22;6994;49.752;6.094;2024-01-27T08:25:05;-0.10;99.90
13848;DHT22;6994;49.752;6.094;2024-01-27T08:27:32;-0.20;99.90
13848;DHT22;6994;49.752;6.094;2024-01-27T08:30:00;-0.20;99.90
13848;DHT22;6994;49.752;6.094;2024-01-27T08:32:27;-0.20;99.90
13848;DHT22;6994;49.752;6.094;2024-01-27T08:34:55;-0.20;99.90
13848;DHT22;6994;49.752;6.094;2024-01-27T08:37:23;-0.20;99.90
13848;DHT22;6994;49.752;6.094;2024-01-27T08:39:51;-0.20;99.90
13848;DHT22;6994;49.752;6.094;2024-01-27T08:42:18;-0.20;99.90
13848;DHT22;6994;49.752;6.094;2024-01-27T08:44:45;-0.20;99.90
13848;DHT22;6994;49.752;6.094;2024-01-27T08:47:12;-0.20;99.90
13848;DHT22;6994;49.752;6.094;2024-01-27T08:49:40;-0.20;99.90
13848;DHT22;6994;49.752;6.094;2024-01-27T08:52:07;-0.20;99.90
13848;DHT22;6994;49.752;6.094;2024-01-27T08:54:35;0.20;99.90
13848;DHT22;6994;49.752;6.094;2024-01-27T08:57:03;0.20;99.90
13848;DHT22;6994;49.752;6.094;2024-01-27T08:59:30;0.20;99.90
13848;DHT22;6994;49.752;6.094;2024-01-27T09:01:58;0.20;99.90
13848;DHT22;6994;49.752;6.094;2024-01-27T09:04:26;0.20;99.90
13848;DHT22;6994;49.752;6.094;2024-01-27T09:06:53;0.10;99.90
13848;DHT22;6994;49.752;6.094;2024-01-27T09:09:20;0.10;99.90
13848;DHT22;6994;49.752;6.094;2024-01-27T09:11:48;0.30;99.90
13848;DHT22;6994;49.752;6.094;2024-01-27T09:14:15;0.70;99.90
13848;DHT22;6994;49.752;6.094;2024-01-27T09:16:43;0.70;99.90
13848;DHT22;6994;49.752;6.094;2024-01-27T09:19:10;0.70;99.90
13848;DHT22;6994;49.752;6.094;2024-01-27T09:21:37;0.60;99.90
13848;DHT22;6994;49.752;6.094;2024-01-27T09:24:05;0.50;99.90
13848;DHT22;6994;49.752;6.094;2024-01-27T09:26:33;0.50;99.90
13848;DHT22;6994;49.752;6.094;2024-01-27T09:29:01;0.50;99.90
13848;DHT22;6994;49.752;6.094;2024-01-27T09:31:29;0.50;99.90
13848;DHT22;6994;49.752;6.094;2024-01-27T09:33:57;0.50;99.90
13848;DHT22;6994;49.752;6.094;2024-01-27T09:36:25;0.70;99.90
13848;DHT22;6994;49.752;6.094;2024-01-27T09:38:53;0.80;99.90
13848;DHT22;6994;49.752;6.094;2024-01-27T09:41:21;0.80;99.90
13848;DHT22;6994;49.752;6.094;2024-01-27T09:43:49;0.80;99.90
13848;DHT22;6994;49.752;6.094;2024-01-27T09:46:17;0.90;99.90
13848;DHT22;6994;49.752;6.094;2024-01-27T09:48:45;0.90;99.90
13848;DHT22;6994;49.752;6.094;2024-01-27T09:51:12;0.90;99.90
13848;DHT22;6994;49.752;6.094;2024-01-27T09:53:39;0.90;99.90
13848;DHT22;6994;49.752;6.094;2024-01-27T09:56:07;0.90;99.90
13848;DHT22;6994;49.752;6.094;2024-01-27T09:58:34;1.20;99.90
13848;DHT22;6994;49.752;6.094;2024-01-27T10:01:01;1.30;99.90
13848;DHT22;6994;49.752;6.094;2024-01-27T10:03:28;1.60;99.90
13848;DHT22;6994;49.752;6.094;2024-01-27T10:05:56;1.70;99.90
13848;DHT22;6994;49.752;6.094;2024-01-27T10:08:23;1.70;99.90
13848;DHT22;6994;49.752;6.094;2024-01-27T10:10:56;1.70;99.90
13848;DHT22;6994;49.752;6.094;2024-01-27T10:13:20;1.70;99.90
13848;DHT22;6994;49.752;6.094;2024-01-27T10:15:47;1.70;99.90
13848;DHT22;6994;49.752;6.094;2024-01-27T10:18:14;1.70;99.90
13848;DHT22;6994;49.752;6.094;2024-01-27T10:20:42;1.60;99.90
13848;DHT22;6994;49.752;6.094;2024-01-27T10:23:12;1.60;99.90
13848;DHT22;6994;49.752;6.094;2024-01-27T10:25:40;1.60;99.90
13848;DHT22;6994;49.752;6.094;2024-01-27T10:28:08;1.60;99.90
13848;DHT22;6994;49.752;6.094;2024-01-27T10:30:36;1.60;99.90
13848;DHT22;6994;49.752;6.094;2024-01-27T10:33:04;1.70;99.90
13848;DHT22;6994;49.752;6.094;2024-01-27T10:35:31;1.70;99.90
13848;DHT22;6994;49.752;6.094;2024-01-27T10:37:59;1.90;99.90
13848;DHT22;6994;49.752;6.094;2024-01-27T10:40:27;2.00;99.90
13848;DHT22;6994;49.752;6.094;2024-01-27T10:43:07;2.20;99.90
13848;DHT22;6994;49.752;6.094;2024-01-27T10:45:40;2.20;99.90
13848;DHT22;6994;49.752;6.094;2024-01-27T10:48:04;2.30;99.90
13848;DHT22;6994;49.752;6.094;2024-01-27T10:50:34;2.40;99.90
13848;DHT22;6994;49.752;6.094;2024-01-27T10:53:02;2.70;99.90
13848;DHT22;6994;49.752;6.094;2024-01-27T10:55:30;2.70;99.90
13848;DHT22;6994;49.752;6.094;2024-01-27T10:57:58;2.80;99.90
13848;DHT22;6994;49.752;6.094;2024-01-27T11:00:26;2.80;99.90
13848;DHT22;6994;49.752;6.094;2024-01-27T11:02:54;2.90;99.90
13848;DHT22;6994;49.752;6.094;2024-01-27T11:05:22;2.90;99.90
13848;DHT22;6994;49.752;6.094;2024-01-27T11:07:49;3.00;99.90
13848;DHT22;6994;49.752;6.094;2024-01-27T11:10:17;3.10;99.90
13848;DHT22;6994;49.752;6.094;2024-01-27T11:12:47;3.10;99.90
13848;DHT22;6994;49.752;6.094;2024-01-27T11:15:13;3.10;99.90
13848;DHT22;6994;49.752;6.094;2024-01-27T11:17:40;3.20;99.90
13848;DHT22;6994;49.752;6.094;2024-01-27T11:20:10;3.20;99.90
13848;DHT22;6994;49.752;6.094;2024-01-27T11:22:37;3.60;99.90
13848;DHT22;6994;49.752;6.094;2024-01-27T11:27:41;4.30;99.90
13848;DHT22;6994;49.752;6.094;2024-01-27T11:30:23;4.30;99.90
13848;DHT22;6994;49.752;6.094;2024-01-27T11:32:36;4.20;99.90
13848;DHT22;6994;49.752;6.094;2024-01-27T11:35:04;3.90;99.90
13848;DHT22;6994;49.752;6.094;2024-01-27T11:37:31;3.90;99.90
13848;DHT22;6994;49.752;6.094;2024-01-27T11:40:06;3.90;99.90
13848;DHT22;6994;49.752;6.094;2024-01-27T11:42:33;3.90;99.90
13848;DHT22;6994;49.752;6.094;2024-01-27T11:45:00;4.00;99.90
13848;DHT22;6994;49.752;6.094;2024-01-27T11:47:27;4.10;99.90
13848;DHT22;6994;49.752;6.094;2024-01-27T11:49:55;4.30;99.90
13848;DHT22;6994;49.752;6.094;2024-01-27T11:52:22;4.50;99.90
13848;DHT22;6994;49.752;6.094;2024-01-27T11:54:55;4.60;99.90
13848;DHT22;6994;49.752;6.094;2024-01-27T11:57:22;4.80;99.90
13848;DHT22;6994;49.752;6.094;2024-01-27T11:59:50;4.90;99.90
13848;DHT22;6994;49.752;6.094;2024-01-27T12:02:16;5.30;99.90
13848;DHT22;6994;49.752;6.094;2024-01-27T12:04:43;5.50;99.90
13848;DHT22;6994;49.752;6.094;2024-01-27T12:07:10;5.60;99.90
13848;DHT22;6994;49.752;6.094;2024-01-27T12:09:38;5.60;99.90
13848;DHT22;6994;49.752;6.094;2024-01-27T12:12:05;5.60;99.90
13848;DHT22;6994;49.752;6.094;2024-01-27T12:14:44;5.60;99.90
13848;DHT22;6994;49.752;6.094;2024-01-27T12:17:08;5.50;99.90
13848;DHT22;6994;49.752;6.094;2024-01-27T12:19:36;5.50;99.90
13848;DHT22;6994;49.752;6.094;2024-01-27T12:22:03;5.60;99.90
13848;DHT22;6994;49.752;6.094;2024-01-27T12:24:30;5.60;99.90
13848;DHT22;6994;49.752;6.094;2024-01-27T12:26:57;6.00;99.90
13848;DHT22;6994;49.752;6.094;2024-01-27T12:29:25;6.10;99.90
13848;DHT22;6994;49.752;6.094;2024-01-27T12:31:53;6.20;99.90
13848;DHT22;6994;49.752;6.094;2024-01-27T12:34:21;6.20;99.90
13848;DHT22;6994;49.752;6.094;2024-01-27T12:36:49;6.20;99.90
13848;DHT22;6994;49.752;6.094;2024-01-27T12:39:17;6.30;99.90
13848;DHT22;6994;49.752;6.094;2024-01-27T12:41:45;6.40;99.90
13848;DHT22;6994;49.752;6.094;2024-01-27T12:44:12;6.40;99.90
13848;DHT22;6994;49.752;6.094;2024-01-27T12:46:39;6.50;99.90
13848;DHT22;6994;49.752;6.094;2024-01-27T12:49:07;6.60;99.90
13848;DHT22;6994;49.752;6.094;2024-01-27T12:51:34;6.70;99.90
13848;DHT22;6994;49.752;6.094;2024-01-27T12:54:01;6.70;99.90
13848;DHT22;6994;49.752;6.094;2024-01-27T12:56:28;6.80;99.90
13848;DHT22;6994;49.752;6.094;2024-01-27T12:58:55;6.90;99.90
13848;DHT22;6994;49.752;6.094;2024-01-27T13:01:23;7.10;99.90
13848;DHT22;6994;49.752;6.094;2024-01-27T13:03:50;7.30;99.90
13848;DHT22;6994;49.752;6.094;2024-01-27T13:06:17;7.50;99.90
13848;DHT22;6994;49.752;6.094;2024-01-27T13:08:44;7.70;99.90
13848;DHT22;6994;49.752;6.094;2024-01-27T13:11:11;7.90;99.90
13848;DHT22;6994;49.752;6.094;2024-01-27T13:13:40;8.10;99.90
13848;DHT22;6994;49.752;6.094;2024-01-27T13:16:06;8.30;99.90
13848;DHT22;6994;49.752;6.094;2024-01-27T13:18:33;8.50;99.90
13848;DHT22;6994;49.752;6.094;2024-01-27T13:21:01;8.90;99.90
13848;DHT22;6994;49.752;6.094;2024-01-27T13:23:29;9.20;99.90
13848;DHT22;6994;49.752;6.094;2024-01-27T13:25:57;9.50;99.90
13848;DHT22;6994;49.752;6.094;2024-01-27T13:28:25;9.80;99.90
13848;DHT22;6994;49.752;6.094;2024-01-27T13:30:52;9.80;99.90
13848;DHT22;6994;49.752;6.094;2024-01-27T13:33:19;10.00;99.90
13848;DHT22;6994;49.752;6.094;2024-01-27T13:35:47;10.30;99.90
13848;DHT22;6994;49.752;6.094;2024-01-27T13:38:15;10.50;99.90
13848;DHT22;6994;49.752;6.094;2024-01-27T13:40:43;10.60;99.90
13848;DHT22;6994;49.752;6.094;2024-01-27T13:43:11;10.80;99.90
13848;DHT22;6994;49.752;6.094;2024-01-27T13:45:39;10.90;99.90
13848;DHT22;6994;49.752;6.094;2024-01-27T13:48:07;11.10;99.90
13848;DHT22;6994;49.752;6.094;2024-01-27T13:50:35;11.30;99.90
13848;DHT22;6994;49.752;6.094;2024-01-27T13:53:02;11.30;99.90
13848;DHT22;6994;49.752;6.094;2024-01-27T13:55:30;11.50;99.90
13848;DHT22;6994;49.752;6.094;2024-01-27T13:57:57;11.60;99.90
13848;DHT22;6994;49.752;6.094;2024-01-27T14:00:24;12.20;99.90
13848;DHT22;6994;49.752;6.094;2024-01-27T14:02:51;12.30;99.90
13848;DHT22;6994;49.752;6.094;2024-01-27T14:05:18;12.20;99.90
13848;DHT22;6994;49.752;6.094;2024-01-27T14:07:46;11.90;99.90
13848;DHT22;6994;49.752;6.094;2024-01-27T14:10:13;11.70;99.90
13848;DHT22;6994;49.752;6.094;2024-01-27T14:12:40;11.50;99.90
13848;DHT22;6994;49.752;6.094;2024-01-27T14:15:08;11.10;99.90
13848;DHT22;6994;49.752;6.094;2024-01-27T14:17:35;11.10;99.90
13848;DHT22;6994;49.752;6.094;2024-01-27T14:20:03;10.90;99.90
13848;DHT22;6994;49.752;6.094;2024-01-27T14:22:30;10.70;99.90
13848;DHT22;6994;49.752;6.094;2024-01-27T14:24:58;10.60;99.90
13848;DHT22;6994;49.752;6.094;2024-01-27T14:27:26;10.30;99.90
13848;DHT22;6994;49.752;6.094;2024-01-27T14:29:54;10.20;99.90
13848;DHT22;6994;49.752;6.094;2024-01-27T14:32:22;10.00;99.90
13848;DHT22;6994;49.752;6.094;2024-01-27T14:34:49;10.00;99.90
13848;DHT22;6994;49.752;6.094;2024-01-27T14:37:16;9.90;99.90
13848;DHT22;6994;49.752;6.094;2024-01-27T14:39:44;9.90;99.90
13848;DHT22;6994;49.752;6.094;2024-01-27T14:42:11;10.10;99.90
13848;DHT22;6994;49.752;6.094;2024-01-27T14:44:38;10.10;99.90
13848;DHT22;6994;49.752;6.094;2024-01-27T14:47:05;9.90;99.90
13848;DHT22;6994;49.752;6.094;2024-01-27T14:49:32;9.80;99.90
13848;DHT22;6994;49.752;6.094;2024-01-27T14:51:59;10.00;99.90
13848;DHT22;6994;49.752;6.094;2024-01-27T14:54:27;9.90;99.90
13848;DHT22;6994;49.752;6.094;2024-01-27T14:56:54;10.20;99.90
13848;DHT22;6994;49.752;6.094;2024-01-27T14:59:21;10.10;99.90
13848;DHT22;6994;49.752;6.094;2024-01-27T15:01:49;10.10;99.90
13848;DHT22;6994;49.752;6.094;2024-01-27T15:04:17;10.00;99.90
13848;DHT22;6994;49.752;6.094;2024-01-27T15:06:45;10.00;99.90
13848;DHT22;6994;49.752;6.094;2024-01-27T15:09:11;9.90;99.90
13848;DHT22;6994;49.752;6.094;2024-01-27T15:11:39;9.60;99.90
13848;DHT22;6994;49.752;6.094;2024-01-27T15:14:07;9.60;99.90
13848;DHT22;6994;49.752;6.094;2024-01-27T15:16:35;9.50;99.90
13848;DHT22;6994;49.752;6.094;2024-01-27T15:19:03;9.40;99.90
13848;DHT22;6994;49.752;6.094;2024-01-27T15:21:31;9.40;99.90
13848;DHT22;6994;49.752;6.094;2024-01-27T15:23:59;9.30;99.90
13848;DHT22;6994;49.752;6.094;2024-01-27T15:26:27;9.30;99.90
13848;DHT22;6994;49.752;6.094;2024-01-27T15:28:54;9.30;99.90
13848;DHT22;6994;49.752;6.094;2024-01-27T15:31:22;9.30;99.90
13848;DHT22;6994;49.752;6.094;2024-01-27T15:33:49;9.20;99.90
13848;DHT22;6994;49.752;6.094;2024-01-27T15:36:16;9.20;99.90
13848;DHT22;6994;49.752;6.094;2024-01-27T15:38:43;9.10;99.90
13848;DHT22;6994;49.752;6.094;2024-01-27T15:41:10;9.00;99.90
13848;DHT22;6994;49.752;6.094;2024-01-27T15:43:38;8.90;99.90
13848;DHT22;6994;49.752;6.094;2024-01-27T15:46:05;8.70;99.90
13848;DHT22;6994;49.752;6.094;2024-01-27T15:48:32;8.60;99.90
13848;DHT22;6994;49.752;6.094;2024-01-27T15:50:59;8.50;99.90
13848;DHT22;6994;49.752;6.094;2024-01-27T15:53:26;8.30;99.90
13848;DHT22;6994;49.752;6.094;2024-01-27T15:55:54;8.10;99.90